If you wish to contribute or participate in the discussions about articles you are invited to join SKYbrary as a registered user

 Actions

Băneasa International Airport

From SKYbrary Wiki

LRBS
Airport
ICAO: LRBS – IATA: BBU
Summary
Name Băneasa International Airport
Region
Territory Romania RO.gif
Location , Bucuresti
Serving Bucharest
Elevation 90.526 m
297 ft
297 ft90.526 m
Type medium airport
Coordinates 44° 30' 11.50" N, 26° 6' 7.60" E
Runways
Designator Length Width Surface ROPS
7/25 3200 m10,498.688 ft
45 m147.638 ft
CON no/no


METAR
Observation LRBS 112300Z 07002KT CAVOK 07/06 Q1019 NOSIG
Station Bucuresti / Imh
Date/Time 11 November 2019 23:00:00
Wind direction 70°
Wind speed 02 kts
Lowest cloud amount clouds and visibility OK
Temperature 7°C
Dew point 6°C
Humidity 93%
QNH 1019 hPa
Weather condition n/a